createdAt,value
2017-11-17T00:00:06.252Z,5.4
2017-11-17T00:01:13.396Z,5.4
2017-11-17T00:02:18.973Z,5.4
2017-11-17T00:03:22.232Z,5.6
2017-11-17T00:04:24.739Z,5.4
2017-11-17T00:05:27.262Z,5.5
2017-11-17T00:06:29.853Z,5.5
2017-11-17T00:07:32.346Z,5.5
2017-11-17T00:08:35.431Z,5.5
2017-11-17T00:09:38.210Z,5.5
2017-11-17T00:10:41.205Z,5.5
2017-11-17T00:11:43.710Z,5.4
2017-11-17T00:12:46.220Z,5.5
2017-11-17T00:13:48.995Z,5.5
2017-11-17T00:14:51.517Z,5.4
2017-11-17T00:15:54.042Z,5.4
2017-11-17T00:16:56.526Z,5.4
2017-11-17T00:17:59.023Z,5.4
2017-11-17T00:19:01.519Z,5.3
2017-11-17T00:20:04.012Z,5.4
2017-11-17T00:21:06.520Z,5.3
2017-11-17T00:22:09.010Z,5.3
2017-11-17T00:23:11.824Z,5.5
2017-11-17T00:24:14.321Z,5.3
2017-11-17T00:25:16.810Z,5.3
2017-11-17T00:26:19.618Z,5.3
2017-11-17T00:27:22.111Z,5.3
2017-11-17T00:28:24.598Z,5.3
2017-11-17T00:29:27.094Z,5.2
2017-11-17T00:30:29.601Z,5.2
2017-11-17T00:31:32.098Z,5.1
2017-11-17T00:32:34.890Z,5.1
2017-11-17T00:33:38.021Z,5.1
2017-11-17T00:34:40.809Z,5.2
2017-11-17T00:35:43.602Z,5.1
2017-11-17T00:36:46.090Z,5.1
2017-11-17T00:37:48.637Z,5.1
2017-11-17T00:38:51.112Z,5.1
2017-11-17T00:39:53.611Z,5
2017-11-17T00:40:56.409Z,5
2017-11-17T00:41:58.915Z,5
2017-11-17T00:43:01.406Z,5
2017-11-17T00:44:04.535Z,5
2017-11-17T00:45:07.024Z,5
2017-11-17T00:46:09.530Z,5
2017-11-17T00:47:12.022Z,5
2017-11-17T00:48:14.531Z,5
2017-11-17T00:49:17.037Z,5
2017-11-17T00:50:19.534Z,5
2017-11-17T00:51:22.030Z,5
2017-11-17T00:52:24.543Z,5
2017-11-17T00:53:27.027Z,5
2017-11-17T00:54:29.519Z,4.9
2017-11-17T00:55:32.026Z,4.9
2017-11-17T00:56:34.824Z,4.9
2017-11-17T00:57:37.327Z,5
2017-11-17T00:58:39.832Z,4.9
2017-11-17T00:59:42.322Z,4.9
2017-11-17T01:00:44.823Z,4.9
2017-11-17T01:01:47.626Z,4.9
2017-11-17T01:02:50.120Z,4.9
2017-11-17T01:03:52.612Z,4.9
2017-11-17T01:04:55.108Z,4.9
2017-11-17T01:05:57.610Z,4.9
2017-11-17T01:07:00.104Z,4.9
2017-11-17T01:08:02.604Z,4.9
2017-11-17T01:09:05.099Z,4.9
2017-11-17T01:10:07.598Z,4.9
2017-11-17T01:11:10.712Z,4.9
2017-11-17T01:12:13.206Z,4.9
2017-11-17T01:13:16.001Z,4.9
2017-11-17T01:14:18.514Z,4.9
2017-11-17T01:15:21.014Z,4.9
2017-11-17T01:16:23.521Z,4.9
2017-11-17T01:17:26.029Z,4.9
2017-11-17T01:18:28.803Z,4.9
2017-11-17T01:19:31.309Z,4.9
2017-11-17T01:20:33.813Z,4.9
2017-11-17T01:21:36.308Z,4.9
2017-11-17T01:22:39.111Z,4.9
2017-11-17T01:23:41.897Z,4.9
2017-11-17T01:24:44.429Z,4.9
2017-11-17T01:25:47.210Z,4.9
2017-11-17T01:26:49.709Z,4.9
2017-11-17T01:27:52.197Z,4.9
2017-11-17T01:28:55.015Z,4.9
2017-11-17T01:29:57.512Z,4.9
2017-11-17T01:31:00.009Z,4.9
2017-11-17T01:32:02.502Z,4.9
2017-11-17T01:33:05.003Z,4.9
2017-11-17T01:34:07.801Z,4.9
2017-11-17T01:35:10.301Z,4.9
2017-11-17T01:36:12.793Z,4.9
2017-11-17T01:37:15.301Z,4.9
2017-11-17T01:38:17.788Z,4.9
2017-11-17T01:39:20.300Z,4.9
2017-11-17T01:40:22.795Z,4.9
2017-11-17T01:41:25.290Z,4.9
2017-11-17T01:42:27.787Z,4.9
2017-11-17T01:43:30.293Z,4.9
2017-11-17T01:44:32.775Z,4.9
2017-11-17T01:45:35.288Z,4.9
2017-11-17T01:46:37.788Z,4.9
2017-11-17T01:47:40.286Z,4.9
2017-11-17T01:48:42.778Z,4.9
2017-11-17T01:49:45.281Z,4.9
2017-11-17T01:50:48.062Z,4.9
2017-11-17T01:51:50.579Z,4.9
2017-11-17T01:52:53.061Z,4.9
2017-11-17T01:53:55.568Z,4.8
2017-11-17T01:54:58.069Z,4.9
2017-11-17T01:56:00.563Z,4.8
2017-11-17T01:57:03.057Z,4.9
2017-11-17T01:58:05.551Z,4.8
2017-11-17T01:59:08.034Z,4.9
2017-11-17T02:00:10.535Z,4.9
2017-11-17T02:01:13.028Z,4.9
2017-11-17T02:02:15.530Z,4.9
2017-11-17T02:03:18.061Z,4.9
2017-11-17T02:04:20.541Z,4.9
2017-11-17T02:05:23.043Z,4.9
2017-11-17T02:06:25.830Z,4.9
2017-11-17T02:07:28.332Z,4.9
2017-11-17T02:08:31.119Z,4.9
2017-11-17T02:09:33.615Z,4.9
2017-11-17T02:10:36.105Z,4.9
2017-11-17T02:11:38.604Z,4.9
2017-11-17T02:12:41.111Z,4.8
2017-11-17T02:13:43.608Z,4.9
2017-11-17T02:14:46.112Z,4.9
2017-11-17T02:15:48.613Z,4.9
2017-11-17T02:16:51.101Z,4.8
2017-11-17T02:17:53.617Z,4.8
2017-11-17T02:18:56.691Z,4.9
2017-11-17T02:19:59.185Z,4.8
2017-11-17T02:21:01.689Z,4.9
2017-11-17T02:22:04.191Z,4.9
2017-11-17T02:23:06.684Z,4.8
2017-11-17T02:24:09.193Z,4.8
2017-11-17T02:25:11.671Z,4.8
2017-11-17T02:26:14.180Z,4.9
2017-11-17T02:27:16.678Z,4.8
2017-11-17T02:28:19.172Z,4.8
2017-11-17T02:29:21.675Z,4.8
2017-11-17T02:30:24.172Z,4.9
2017-11-17T02:31:26.669Z,4.8
2017-11-17T02:32:29.166Z,4.8
2017-11-17T02:33:31.963Z,4.9
2017-11-17T02:34:34.477Z,4.9
2017-11-17T02:35:36.973Z,4.8
2017-11-17T02:36:39.455Z,4.9
2017-11-17T02:37:41.958Z,4.9
2017-11-17T02:38:44.742Z,4.8
2017-11-17T02:39:47.244Z,4.9
2017-11-17T02:40:49.742Z,4.8
2017-11-17T02:41:52.229Z,4.8
2017-11-17T02:42:54.732Z,4.8
2017-11-17T02:43:57.856Z,4.9
2017-11-17T02:45:00.329Z,4.8
2017-11-17T02:46:02.831Z,4.8
2017-11-17T02:47:05.325Z,4.8
2017-11-17T02:48:07.821Z,4.8
2017-11-17T02:49:10.331Z,4.8
2017-11-17T02:50:12.832Z,4.8
2017-11-17T02:51:15.318Z,4.9
2017-11-17T02:52:17.832Z,4.9
2017-11-17T02:53:20.329Z,4.8
2017-11-17T02:54:22.821Z,4.8
2017-11-17T02:55:25.315Z,4.8
2017-11-17T02:56:28.415Z,4.8
2017-11-17T02:57:30.887Z,4.8
2017-11-17T02:58:33.407Z,4.8
2017-11-17T02:59:36.215Z,4.8
2017-11-17T03:00:38.705Z,4.8
2017-11-17T03:01:41.192Z,4.9
2017-11-17T03:02:43.696Z,4.8
2017-11-17T03:03:46.185Z,4.8
2017-11-17T03:04:48.975Z,4.8
2017-11-17T03:05:51.471Z,4.8
2017-11-17T03:06:53.966Z,4.8
2017-11-17T03:07:56.472Z,4.8
2017-11-17T03:08:58.973Z,4.8
2017-11-17T03:10:02.049Z,4.8
2017-11-17T03:11:04.550Z,4.8
2017-11-17T03:12:07.063Z,4.8
2017-11-17T03:13:09.851Z,4.8
2017-11-17T03:14:12.345Z,4.8
2017-11-17T03:15:14.832Z,4.8
2017-11-17T03:16:17.621Z,4.8
2017-11-17T03:17:20.126Z,4.8
2017-11-17T03:18:22.629Z,4.8
2017-11-17T03:19:25.116Z,4.8
2017-11-17T03:20:27.616Z,4.8
2017-11-17T03:21:30.103Z,4.8
2017-11-17T03:22:32.617Z,4.8
2017-11-17T03:23:35.107Z,4.8
2017-11-17T03:24:37.588Z,4.8
2017-11-17T03:25:40.086Z,4.8
2017-11-17T03:26:42.885Z,4.8
2017-11-17T03:27:45.698Z,4.8
2017-11-17T03:28:48.188Z,4.8
2017-11-17T03:29:50.679Z,4.8
2017-11-17T03:30:53.181Z,4.8
2017-11-17T03:31:55.680Z,4.8
2017-11-17T03:32:58.170Z,4.8
2017-11-17T03:34:00.989Z,4.8
2017-11-17T03:35:03.471Z,4.8
2017-11-17T03:36:05.975Z,4.8
2017-11-17T03:37:08.468Z,4.8
2017-11-17T03:38:10.966Z,4.8
2017-11-17T03:39:13.467Z,4.8
2017-11-17T03:40:15.968Z,4.8
2017-11-17T03:41:18.451Z,4.8
2017-11-17T03:42:20.946Z,4.8
2017-11-17T03:43:24.030Z,4.8
2017-11-17T03:44:26.518Z,4.8
2017-11-17T03:45:29.021Z,4.7
2017-11-17T03:46:31.507Z,4.8
2017-11-17T03:47:34.004Z,4.8
2017-11-17T03:48:36.501Z,4.8
2017-11-17T03:49:38.985Z,4.8
2017-11-17T03:50:41.489Z,4.8
2017-11-17T03:51:43.975Z,4.8
2017-11-17T03:52:46.476Z,4.7
2017-11-17T03:53:48.975Z,4.8
2017-11-17T03:54:51.480Z,4.8
2017-11-17T03:55:53.967Z,4.8
2017-11-17T03:56:56.475Z,4.7
2017-11-17T03:57:58.973Z,4.8
2017-11-17T03:59:01.478Z,4.7
2017-11-17T04:00:04.269Z,4.7
2017-11-17T04:01:06.762Z,4.8
2017-11-17T04:02:09.540Z,4.8
2017-11-17T04:03:12.278Z,4.8
2017-11-17T04:04:14.768Z,4.8
2017-11-17T04:05:17.254Z,4.7
2017-11-17T04:06:19.762Z,4.7
2017-11-17T04:07:22.250Z,4.7
2017-11-17T04:08:24.763Z,4.8
2017-11-17T04:09:27.253Z,4.7
2017-11-17T04:10:29.744Z,4.8
2017-11-17T04:11:32.275Z,4.8
2017-11-17T04:12:34.749Z,4.7
2017-11-17T04:13:37.233Z,4.7
2017-11-17T04:14:39.726Z,4.7
2017-11-17T04:15:42.232Z,4.7
2017-11-17T04:16:44.706Z,4.7
2017-11-17T04:17:47.205Z,4.7
2017-11-17T04:18:49.697Z,5.2
2017-11-17T04:19:53.282Z,4.8
2017-11-17T04:20:55.774Z,4.8
2017-11-17T04:21:58.277Z,4.7
2017-11-17T04:23:00.767Z,4.7
2017-11-17T04:24:03.273Z,4.7
2017-11-17T04:25:06.052Z,4.7
2017-11-17T04:26:08.543Z,4.7
2017-11-17T04:27:11.041Z,4.7
2017-11-17T04:28:13.539Z,4.7
2017-11-17T04:29:16.022Z,4.7
2017-11-17T04:30:18.522Z,4.7
2017-11-17T04:31:21.013Z,4.8
2017-11-17T04:32:23.517Z,4.7
2017-11-17T04:33:26.009Z,4.7
2017-11-17T04:34:28.506Z,4.7
2017-11-17T04:35:30.999Z,4.7
2017-11-17T04:36:33.503Z,4.8
2017-11-17T04:37:35.992Z,4.7
2017-11-17T04:38:38.483Z,4.7
2017-11-17T04:39:41.265Z,4.7
2017-11-17T04:40:44.087Z,4.7
2017-11-17T04:41:46.876Z,4.8
2017-11-17T04:42:49.374Z,4.7
2017-11-17T04:43:51.898Z,4.7
2017-11-17T04:44:54.369Z,4.8
2017-11-17T04:45:57.177Z,4.7
2017-11-17T04:46:59.675Z,4.7
2017-11-17T04:48:02.450Z,4.7
2017-11-17T04:49:04.948Z,4.7
2017-11-17T04:50:07.457Z,4.8
2017-11-17T04:51:09.946Z,4.7
2017-11-17T04:52:12.438Z,4.7
2017-11-17T04:53:14.925Z,4.7
2017-11-17T04:54:17.421Z,4.7
2017-11-17T04:55:19.924Z,4.7
2017-11-17T04:56:22.724Z,4.7
2017-11-17T04:57:25.208Z,4.7
2017-11-17T04:58:28.005Z,4.7
2017-11-17T04:59:30.507Z,4.7
2017-11-17T05:00:33.000Z,4.7
2017-11-17T05:01:35.804Z,4.7
2017-11-17T05:02:38.300Z,4.8
2017-11-17T05:03:40.800Z,4.8
2017-11-17T05:04:43.282Z,4.7
2017-11-17T05:05:46.079Z,4.7
2017-11-17T05:06:48.573Z,4.7
2017-11-17T05:07:51.067Z,4.7
2017-11-17T05:08:53.560Z,4.7
2017-11-17T05:09:56.347Z,4.7
2017-11-17T05:10:58.837Z,4.7
2017-11-17T05:12:01.355Z,4.7
2017-11-17T05:13:04.145Z,4.7
2017-11-17T05:14:06.662Z,4.8
2017-11-17T05:15:09.152Z,4.7
2017-11-17T05:16:11.637Z,4.7
2017-11-17T05:17:14.136Z,4.7
2017-11-17T05:18:16.632Z,4.8
2017-11-17T05:19:19.577Z,4.7
2017-11-17T05:20:22.087Z,4.7
2017-11-17T05:21:24.867Z,4.7
2017-11-17T05:22:27.363Z,4.7
2017-11-17T05:23:29.865Z,4.7
2017-11-17T05:24:32.349Z,4.7
2017-11-17T05:25:35.153Z,4.7
2017-11-17T05:26:37.649Z,4.7
2017-11-17T05:27:40.149Z,4.7
2017-11-17T05:28:42.630Z,4.7
2017-11-17T05:29:45.129Z,4.7
2017-11-17T05:30:47.625Z,4.7
2017-11-17T05:31:50.446Z,4.7
2017-11-17T05:32:52.907Z,4.7
2017-11-17T05:33:55.404Z,4.7
2017-11-17T05:34:57.902Z,4.7
2017-11-17T05:36:00.397Z,4.7
2017-11-17T05:37:03.189Z,4.7
2017-11-17T05:38:05.973Z,4.7
2017-11-17T05:39:08.467Z,4.7
2017-11-17T05:40:10.960Z,4.7
2017-11-17T05:41:13.460Z,4.7
2017-11-17T05:42:15.956Z,4.7
2017-11-17T05:43:18.749Z,4.7
2017-11-17T05:44:21.244Z,4.7
2017-11-17T05:45:23.749Z,4.7
2017-11-17T05:46:26.251Z,4.7
2017-11-17T05:47:28.733Z,4.7
2017-11-17T05:48:31.243Z,4.7
2017-11-17T05:49:33.733Z,4.8
2017-11-17T05:50:36.237Z,4.7
2017-11-17T05:51:38.729Z,4.7
2017-11-17T05:52:41.223Z,4.7
2017-11-17T05:53:43.710Z,4.7
2017-11-17T05:54:46.506Z,4.7
2017-11-17T05:55:48.996Z,4.7
2017-11-17T05:56:51.491Z,4.7
2017-11-17T05:57:54.006Z,4.7
2017-11-17T05:58:56.495Z,4.7
2017-11-17T05:59:58.982Z,4.7
2017-11-17T06:01:01.490Z,4.7
2017-11-17T06:02:04.255Z,4.8
2017-11-17T06:03:06.760Z,4.7
2017-11-17T06:04:09.568Z,4.7
2017-11-17T06:05:12.052Z,4.7
2017-11-17T06:06:14.553Z,4.7
2017-11-17T06:07:17.043Z,4.7
2017-11-17T06:08:19.538Z,4.7
2017-11-17T06:09:22.046Z,4.7
2017-11-17T06:10:24.535Z,4.7
2017-11-17T06:11:27.026Z,4.7
2017-11-17T06:12:29.519Z,4.7
2017-11-17T06:13:32.000Z,4.7
2017-11-17T06:14:34.497Z,4.7
2017-11-17T06:15:36.999Z,4.7
2017-11-17T06:16:39.481Z,4.7
2017-11-17T06:17:41.972Z,4.7
2017-11-17T06:18:44.474Z,4.7
2017-11-17T06:19:46.952Z,4.7
2017-11-17T06:20:49.464Z,4.7
2017-11-17T06:21:51.942Z,4.7
2017-11-17T06:22:54.438Z,4.7
2017-11-17T06:23:56.930Z,4.8
2017-11-17T06:24:59.714Z,4.7
2017-11-17T06:26:02.210Z,4.7
2017-11-17T06:27:05.000Z,4.7
2017-11-17T06:28:07.497Z,4.7
2017-11-17T06:29:10.636Z,4.7
2017-11-17T06:30:13.440Z,4.7
2017-11-17T06:31:15.929Z,4.7
2017-11-17T06:32:18.431Z,4.7
2017-11-17T06:33:21.210Z,4.6
2017-11-17T06:34:23.706Z,4.6
2017-11-17T06:35:26.353Z,4.6
2017-11-17T06:36:28.842Z,4.7
2017-11-17T06:37:31.347Z,4.6
2017-11-17T06:38:33.844Z,4.7
2017-11-17T06:39:36.332Z,4.6
2017-11-17T06:40:39.129Z,4.7
2017-11-17T06:41:41.620Z,4.6
2017-11-17T06:42:44.113Z,4.6
2017-11-17T06:43:46.903Z,4.6
2017-11-17T06:44:49.678Z,4.6
2017-11-17T06:45:52.460Z,4.6
2017-11-17T06:46:55.291Z,4.6
2017-11-17T06:47:58.366Z,4.6
2017-11-17T06:49:00.858Z,4.6
2017-11-17T06:50:03.359Z,4.6
2017-11-17T06:51:06.146Z,4.7
2017-11-17T06:52:08.654Z,4.6
2017-11-17T06:53:11.155Z,4.6
2017-11-17T06:54:13.922Z,4.6
2017-11-17T06:55:16.421Z,4.6
2017-11-17T06:56:18.925Z,4.6
2017-11-17T06:57:21.412Z,4.6
2017-11-17T06:58:23.899Z,4.6
2017-11-17T06:59:26.408Z,4.7
2017-11-17T07:00:28.906Z,4.6
2017-11-17T07:01:31.689Z,4.6
2017-11-17T07:02:34.194Z,4.6
2017-11-17T07:03:36.682Z,4.6
2017-11-17T07:04:39.178Z,4.5
2017-11-17T07:05:41.677Z,4.6
2017-11-17T07:06:44.166Z,4.6
2017-11-17T07:07:46.657Z,4.5
2017-11-17T07:08:49.454Z,4.5
2017-11-17T07:09:51.937Z,4.6
2017-11-17T07:10:54.734Z,4.6
2017-11-17T07:11:57.229Z,4.5
2017-11-17T07:12:59.712Z,4.5
2017-11-17T07:14:02.520Z,4.6
2017-11-17T07:15:05.012Z,4.6
2017-11-17T07:16:07.798Z,4.5
2017-11-17T07:17:10.900Z,4.6
2017-11-17T07:18:13.394Z,4.5
2017-11-17T07:19:15.884Z,4.5
2017-11-17T07:20:18.396Z,4.6
2017-11-17T07:21:20.889Z,4.6
2017-11-17T07:22:23.386Z,4.6
2017-11-17T07:23:25.875Z,4.6
2017-11-17T07:24:28.378Z,4.6
2017-11-17T07:25:30.869Z,4.6
2017-11-17T07:26:33.360Z,4.6
2017-11-17T07:27:35.863Z,4.6
2017-11-17T07:28:38.354Z,4.6
2017-11-17T07:29:40.856Z,4.6
2017-11-17T07:30:43.345Z,4.6
2017-11-17T07:31:45.855Z,4.6
2017-11-17T07:32:48.332Z,4.6
2017-11-17T07:33:50.846Z,4.7
2017-11-17T07:34:53.627Z,4.6
2017-11-17T07:35:56.129Z,4.6
2017-11-17T07:36:58.637Z,4.6
2017-11-17T07:38:01.432Z,4.6
2017-11-17T07:39:03.923Z,4.6
2017-11-17T07:40:06.428Z,4.6
2017-11-17T07:41:08.916Z,4.6
2017-11-17T07:42:11.711Z,4.7
2017-11-17T07:43:14.207Z,4.6
2017-11-17T07:44:16.690Z,4.6
2017-11-17T07:45:19.195Z,4.6
2017-11-17T07:46:21.696Z,4.7
2017-11-17T07:47:24.188Z,4.7
2017-11-17T07:48:27.270Z,4.7
2017-11-17T07:49:29.765Z,4.7
2017-11-17T07:50:32.556Z,4.7
2017-11-17T07:51:35.067Z,4.7
2017-11-17T07:52:37.552Z,4.7
2017-11-17T07:53:40.050Z,4.7
2017-11-17T07:54:42.539Z,4.7
2017-11-17T07:55:45.042Z,4.7
2017-11-17T07:56:48.132Z,4.7
2017-11-17T07:57:50.628Z,4.7
2017-11-17T07:58:53.125Z,4.7
2017-11-17T07:59:55.923Z,4.7
2017-11-17T08:00:58.398Z,4.7
2017-11-17T08:02:00.897Z,4.8
2017-11-17T08:03:03.700Z,4.7
2017-11-17T08:04:06.490Z,4.8
2017-11-17T08:05:08.984Z,4.7
2017-11-17T08:06:11.775Z,4.7
2017-11-17T08:07:14.266Z,4.7
2017-11-17T08:08:16.775Z,4.7
2017-11-17T08:09:19.277Z,4.7
2017-11-17T08:10:22.069Z,4.7
2017-11-17T08:11:24.570Z,4.7
2017-11-17T08:12:27.063Z,4.7
2017-11-17T08:13:29.564Z,4.8
2017-11-17T08:14:32.058Z,4.8
2017-11-17T08:15:34.545Z,4.8
2017-11-17T08:16:37.359Z,4.7
2017-11-17T08:17:40.186Z,4.8
2017-11-17T08:18:42.682Z,4.8
2017-11-17T08:19:45.178Z,4.8
2017-11-17T08:20:47.966Z,4.8
2017-11-17T08:21:50.458Z,4.8
2017-11-17T08:22:52.971Z,4.8
2017-11-17T08:23:55.463Z,4.8
2017-11-17T08:24:58.301Z,4.8
2017-11-17T08:26:00.798Z,4.8
2017-11-17T08:27:03.319Z,4.7
2017-11-17T08:28:05.807Z,4.8
2017-11-17T08:29:08.310Z,4.8
2017-11-17T08:30:10.804Z,4.8
2017-11-17T08:31:13.309Z,4.8
2017-11-17T08:32:16.096Z,4.7
2017-11-17T08:33:18.611Z,4.8
2017-11-17T08:34:21.095Z,4.8
2017-11-17T08:35:23.598Z,4.8
2017-11-17T08:36:26.108Z,4.8
2017-11-17T08:37:28.606Z,4.8
2017-11-17T08:38:31.110Z,4.9
2017-11-17T08:39:33.617Z,4.8
2017-11-17T08:40:36.109Z,4.8
2017-11-17T08:41:38.625Z,4.8
2017-11-17T08:42:41.425Z,4.8
2017-11-17T08:43:43.930Z,4.8
2017-11-17T08:44:46.429Z,4.8
2017-11-17T08:45:48.938Z,4.8
2017-11-17T08:46:51.430Z,4.8
2017-11-17T08:47:54.360Z,4.8
2017-11-17T08:48:56.983Z,4.8
2017-11-17T08:49:59.490Z,4.8
2017-11-17T08:51:02.001Z,4.9
2017-11-17T08:52:04.874Z,4.8
2017-11-17T08:53:07.388Z,4.8
2017-11-17T08:54:09.874Z,4.8
2017-11-17T08:55:12.369Z,4.8
2017-11-17T08:56:15.306Z,4.9
2017-11-17T08:57:18.127Z,4.9
2017-11-17T08:58:20.629Z,4.9
2017-11-17T08:59:23.140Z,4.9
2017-11-17T09:00:25.926Z,4.9
2017-11-17T09:01:28.445Z,4.9
2017-11-17T09:02:31.257Z,4.9
2017-11-17T09:03:34.070Z,4.9
2017-11-17T09:04:36.877Z,4.9
2017-11-17T09:05:39.392Z,4.8
2017-11-17T09:06:41.890Z,4.9
2017-11-17T09:07:44.404Z,4.9
2017-11-17T09:08:46.899Z,4.9
2017-11-17T09:09:49.690Z,4.9
2017-11-17T09:10:52.191Z,4.9
2017-11-17T09:11:55.015Z,4.9
2017-11-17T09:12:57.529Z,4.9
2017-11-17T09:14:00.046Z,4.9
2017-11-17T09:15:02.537Z,4.9
2017-11-17T09:16:05.061Z,5
2017-11-17T09:17:07.579Z,5
2017-11-17T09:18:10.374Z,4.9
2017-11-17T09:19:12.877Z,5
2017-11-17T09:20:15.380Z,5
2017-11-17T09:21:17.870Z,4.9
2017-11-17T09:22:20.393Z,5
2017-11-17T09:23:22.897Z,5.1
2017-11-17T09:24:25.392Z,5
2017-11-17T09:25:27.903Z,5
2017-11-17T09:26:30.403Z,5
2017-11-17T09:27:32.912Z,5.1
2017-11-17T09:28:35.416Z,5
2017-11-17T09:29:37.920Z,5.1
2017-11-17T09:30:40.432Z,5.1
2017-11-17T09:31:43.240Z,5
2017-11-17T09:32:45.758Z,5.1
2017-11-17T09:33:48.260Z,5.1
2017-11-17T09:34:50.767Z,5.1
2017-11-17T09:35:53.580Z,5
2017-11-17T09:36:56.083Z,5.1
2017-11-17T09:37:58.587Z,5.1
2017-11-17T09:39:01.104Z,5.2
2017-11-17T09:40:03.607Z,5.2
2017-11-17T09:41:06.130Z,5.2
2017-11-17T09:42:08.926Z,5.1
2017-11-17T09:43:11.427Z,5.2
2017-11-17T09:44:13.937Z,5.1
2017-11-17T09:45:16.451Z,5.1
2017-11-17T09:46:18.946Z,5.1
2017-11-17T09:47:21.452Z,5.1
2017-11-17T09:48:23.966Z,5.1
2017-11-17T09:49:26.457Z,5.1
2017-11-17T09:50:28.969Z,5.1
2017-11-17T09:51:31.481Z,5.1
2017-11-17T09:52:33.983Z,5.1
2017-11-17T09:53:36.499Z,5.2
2017-11-17T09:54:39.324Z,5.1
2017-11-17T09:55:41.818Z,5.2
2017-11-17T09:56:44.328Z,5.2
2017-11-17T09:57:46.823Z,5.2
2017-11-17T09:58:49.340Z,5.2
2017-11-17T09:59:51.850Z,5.1
2017-11-17T10:00:54.366Z,5.2
2017-11-17T10:01:56.878Z,5.1
2017-11-17T10:02:59.388Z,5.1
2017-11-17T10:04:01.894Z,5.1
2017-11-17T10:05:05.050Z,5.1
2017-11-17T10:06:07.551Z,5.1
2017-11-17T10:07:10.066Z,5.1
2017-11-17T10:08:12.570Z,5.2
2017-11-17T10:09:15.389Z,5.1
2017-11-17T10:10:18.200Z,5.2
2017-11-17T10:11:20.714Z,5.1
2017-11-17T10:12:23.206Z,5.2
2017-11-17T10:13:26.015Z,5.3
2017-11-17T10:14:28.531Z,5.2
2017-11-17T10:15:31.034Z,5.3
2017-11-17T10:16:33.838Z,5.2
2017-11-17T10:17:36.677Z,5.2
2017-11-17T10:18:39.466Z,5.2
2017-11-17T10:19:41.985Z,5.2
2017-11-17T10:20:44.493Z,5.2
2017-11-17T10:21:47.007Z,5.3
2017-11-17T10:22:49.810Z,5.2
2017-11-17T10:23:52.336Z,5.2
2017-11-17T10:24:55.439Z,5.3
2017-11-17T10:25:57.949Z,5.2
2017-11-17T10:27:00.467Z,5.2
2017-11-17T10:28:02.986Z,5.2
2017-11-17T10:29:05.790Z,5.3
2017-11-17T10:30:08.313Z,5.2
2017-11-17T10:31:10.822Z,5.3
2017-11-17T10:32:13.330Z,5.2
2017-11-17T10:33:15.848Z,5.3
2017-11-17T10:34:18.360Z,5.2
2017-11-17T10:35:20.872Z,5.3
2017-11-17T10:36:23.387Z,5.3
2017-11-17T10:37:25.900Z,5.3
2017-11-17T10:38:28.408Z,5.3
2017-11-17T10:39:30.930Z,5.3
2017-11-17T10:40:33.735Z,5.3
2017-11-17T10:41:36.247Z,5.3
2017-11-17T10:42:38.755Z,5.3
2017-11-17T10:43:41.263Z,5.3
2017-11-17T10:44:44.072Z,5.3
2017-11-17T10:45:46.595Z,5.3
2017-11-17T10:46:49.100Z,5.3
2017-11-17T10:47:51.622Z,5.3
2017-11-17T10:48:54.439Z,5.3
2017-11-17T10:49:56.950Z,5.3
2017-11-17T10:50:59.473Z,5.3
2017-11-17T10:52:01.986Z,5.4
2017-11-17T10:53:04.501Z,5.3
2017-11-17T10:54:07.013Z,5.3
2017-11-17T10:55:09.523Z,5.3
2017-11-17T10:56:12.050Z,5.3
2017-11-17T10:57:14.559Z,5.3
2017-11-17T10:58:17.376Z,5.3
2017-11-17T10:59:19.891Z,5.3
2017-11-17T11:00:22.401Z,5.4
2017-11-17T11:01:25.216Z,5.3
2017-11-17T11:02:27.725Z,5.3
2017-11-17T11:03:30.545Z,5.3
2017-11-17T11:04:33.071Z,5.4
2017-11-17T11:05:35.573Z,5.4
2017-11-17T11:06:38.077Z,5.4
2017-11-17T11:07:40.592Z,5.4
2017-11-17T11:08:43.113Z,5.3
2017-11-17T11:09:45.629Z,5.3
2017-11-17T11:10:48.145Z,5.3
2017-11-17T11:11:50.642Z,5.3
2017-11-17T11:12:53.161Z,5.3
2017-11-17T11:13:55.674Z,5.3
2017-11-17T11:14:58.194Z,5.3
2017-11-17T11:16:00.722Z,5.3
2017-11-17T11:17:03.221Z,5.3
2017-11-17T11:18:05.732Z,5.3
2017-11-17T11:19:08.256Z,5.3
2017-11-17T11:20:10.770Z,5.3
2017-11-17T11:21:13.277Z,5.3
2017-11-17T11:22:15.874Z,5.3
2017-11-17T11:23:18.413Z,5.3
2017-11-17T11:24:20.953Z,5.3
2017-11-17T11:25:23.779Z,5.3
2017-11-17T11:26:26.279Z,5.2
2017-11-17T11:27:28.807Z,5.3
2017-11-17T11:28:31.308Z,5.3
2017-11-17T11:29:33.819Z,5.3
2017-11-17T11:30:36.639Z,5.3
2017-11-17T11:31:39.143Z,5.3
2017-11-17T11:32:41.654Z,5.3
2017-11-17T11:33:44.176Z,5.3
2017-11-17T11:34:46.688Z,5.3
2017-11-17T11:35:49.246Z,5.3
2017-11-17T11:36:51.729Z,5.3
2017-11-17T11:37:54.222Z,5.3
2017-11-17T11:38:56.746Z,5.3
2017-11-17T11:39:59.259Z,5.3
2017-11-17T11:41:01.771Z,5.4
2017-11-17T11:42:04.299Z,5.3
2017-11-17T11:43:06.796Z,5.3
2017-11-17T11:44:09.314Z,5.3
2017-11-17T11:45:11.849Z,5.3
2017-11-17T11:46:14.657Z,5.3
2017-11-17T11:47:17.184Z,5.3
2017-11-17T11:48:19.697Z,5.3
2017-11-17T11:49:22.207Z,5.3
2017-11-17T11:50:25.052Z,5.3
2017-11-17T11:51:27.562Z,5.3
2017-11-17T11:52:30.063Z,5.3
2017-11-17T11:53:32.593Z,5.3
2017-11-17T11:54:35.109Z,5.3
2017-11-17T11:55:38.208Z,5.3
2017-11-17T11:56:40.728Z,5.3
2017-11-17T11:57:43.232Z,5.3
2017-11-17T11:58:45.747Z,5.4
2017-11-17T11:59:48.260Z,5.3
2017-11-17T12:00:50.766Z,5.3
2017-11-17T12:01:53.612Z,5.3
2017-11-17T12:02:56.426Z,5.2
2017-11-17T12:03:59.233Z,5.2
2017-11-17T12:05:01.751Z,5.2
2017-11-17T12:06:04.262Z,5.2
2017-11-17T12:07:06.783Z,5.3
2017-11-17T12:08:09.294Z,5.3
2017-11-17T12:09:11.801Z,5.3
2017-11-17T12:10:14.612Z,5.3
2017-11-17T12:11:17.158Z,5.3
2017-11-17T12:12:19.681Z,5.3
2017-11-17T12:13:22.159Z,5.3
2017-11-17T12:14:24.672Z,5.3
2017-11-17T12:15:27.189Z,5.3
2017-11-17T12:16:29.704Z,5.3
2017-11-17T12:17:32.519Z,5.2
2017-11-17T12:18:35.317Z,5.4
2017-11-17T12:19:37.826Z,5.2
2017-11-17T12:20:40.364Z,5.3
2017-11-17T12:21:42.864Z,5.3
2017-11-17T12:22:45.380Z,5.3
2017-11-17T12:23:47.897Z,5.3
2017-11-17T12:24:50.409Z,5.3
2017-11-17T12:26:00.287Z,5.3
2017-11-17T12:27:08.534Z,5.2
2017-11-17T12:28:11.815Z,5.3
2017-11-17T12:29:14.333Z,5.3
2017-11-17T12:30:16.840Z,5.3
2017-11-17T12:31:19.355Z,5.3
2017-11-17T12:32:21.862Z,5.3
2017-11-17T12:33:24.395Z,5.3
2017-11-17T12:34:26.900Z,5.2
2017-11-17T12:35:29.410Z,5.3
2017-11-17T12:36:32.230Z,5.3
2017-11-17T12:37:34.742Z,5.3
2017-11-17T12:38:37.553Z,5.3
2017-11-17T12:39:40.364Z,5.3
2017-11-17T12:40:42.886Z,5.3
2017-11-17T12:41:45.476Z,5.3
2017-11-17T12:42:48.694Z,5.3
2017-11-17T12:43:51.959Z,5.3
2017-11-17T12:44:54.495Z,5.2
2017-11-17T12:45:57.348Z,5.2
2017-11-17T12:46:59.899Z,5.3
2017-11-17T12:48:02.771Z,5.3
2017-11-17T12:49:05.304Z,5.2
2017-11-17T12:50:07.815Z,5.2
2017-11-17T12:51:10.429Z,5.2
2017-11-17T12:52:12.947Z,5.2
2017-11-17T12:53:15.459Z,5.2
2017-11-17T12:54:18.000Z,5.2
2017-11-17T12:55:20.676Z,5.2
2017-11-17T12:56:23.189Z,5.2
2017-11-17T12:57:25.694Z,5.2
2017-11-17T12:58:28.212Z,5.2
2017-11-17T12:59:30.741Z,5.1
2017-11-17T13:00:33.610Z,5.1
2017-11-17T13:01:36.762Z,5.3
2017-11-17T13:02:39.267Z,5.1
2017-11-17T13:03:41.789Z,5.2
2017-11-17T13:04:44.308Z,5.2
2017-11-17T13:05:47.740Z,5.2
2017-11-17T13:06:50.237Z,5.2
2017-11-17T13:07:52.769Z,5.2
2017-11-17T13:08:55.649Z,5.1
2017-11-17T13:09:58.170Z,5.2
2017-11-17T13:11:00.685Z,5.2
2017-11-17T13:12:03.511Z,5.2
2017-11-17T13:13:06.018Z,5.2
2017-11-17T13:14:08.820Z,5.2
2017-11-17T13:15:11.336Z,5.2
2017-11-17T13:16:14.169Z,5.2
2017-11-17T13:17:17.114Z,5.2
2017-11-17T13:18:19.635Z,5.1
2017-11-17T13:19:22.176Z,5.2
2017-11-17T13:20:24.727Z,5.1
2017-11-17T13:21:27.285Z,5.1
2017-11-17T13:22:29.807Z,5.1
2017-11-17T13:23:32.318Z,5.1
2017-11-17T13:24:41.172Z,5.2
2017-11-17T13:25:54.876Z,5.1
2017-11-17T13:27:06.926Z,5
2017-11-17T13:28:18.773Z,5.1
2017-11-17T13:29:30.847Z,5.1
2017-11-17T13:30:42.277Z,5.1
2017-11-17T13:31:45.846Z,5.1
2017-11-17T13:32:51.015Z,5
2017-11-17T13:34:08.267Z,5
2017-11-17T13:35:20.350Z,5
2017-11-17T13:36:32.431Z,5
2017-11-17T13:37:48.613Z,5
2017-11-17T13:39:01.667Z,5
2017-11-17T13:40:11.459Z,5
2017-11-17T13:41:22.625Z,5
2017-11-17T13:42:25.639Z,5
2017-11-17T13:43:28.149Z,5
2017-11-17T13:44:31.050Z,4.9
2017-11-17T13:45:34.175Z,5
2017-11-17T13:46:36.665Z,5
2017-11-17T13:47:39.230Z,5
2017-11-17T13:48:41.731Z,4.9
2017-11-17T13:49:44.241Z,5
2017-11-17T13:50:46.739Z,4.9
2017-11-17T13:51:49.236Z,4.9
2017-11-17T13:52:53.031Z,4.9
2017-11-17T13:53:55.612Z,4.9
2017-11-17T13:54:58.766Z,4.9
2017-11-17T13:56:01.870Z,4.9
2017-11-17T13:57:04.773Z,4.9
2017-11-17T13:58:07.425Z,4.9
2017-11-17T13:59:10.225Z,4.9
2017-11-17T14:00:12.738Z,4.9
2017-11-17T14:01:15.233Z,4.9
2017-11-17T14:02:17.742Z,4.9
2017-11-17T14:03:20.245Z,4.9
2017-11-17T14:04:22.749Z,4.9
2017-11-17T14:05:25.261Z,4.9
2017-11-17T14:06:27.762Z,4.9
2017-11-17T14:07:30.263Z,4.8
2017-11-17T14:08:32.768Z,4.8
2017-11-17T14:09:35.251Z,4.8
2017-11-17T14:10:38.077Z,4.9
2017-11-17T14:11:40.888Z,4.9
2017-11-17T14:12:43.383Z,4.9
2017-11-17T14:13:45.890Z,4.9
2017-11-17T14:14:48.394Z,4.9
2017-11-17T14:15:50.902Z,4.9
2017-11-17T14:16:53.418Z,4.8
2017-11-17T14:17:55.903Z,4.9
2017-11-17T14:18:58.411Z,4.9
2017-11-17T14:20:01.230Z,4.9
2017-11-17T14:21:03.729Z,4.9
2017-11-17T14:22:06.537Z,4.8
2017-11-17T14:23:09.035Z,4.8
2017-11-17T14:24:11.554Z,4.9
2017-11-17T14:25:14.036Z,4.9
2017-11-17T14:26:16.545Z,4.9